Time;durP1;ratioP1;P1;durP2;ratioP2;P2;SDS_P1;SDS_P2;PMS_P1;PMS_P2;Temp;Humidity;BMP_temperature;BMP_pressure;BME280_temperature;BME280_humidity;BME280_pressure;Samples;Min_cycle;Max_cycle;Signal;HPM_P1;HPM_P2
2023/08/29 00:00:59;;;;;;;11.47;4.30;;;15.00;99.90;;;;;;4992835;28;20178;-81
2023/08/29 00:03:31;;;;;;;6.83;3.77;;;14.90;99.90;;;;;;4996517;28;20245;-81
2023/08/29 00:06:04;;;;;;;10.83;4.00;;;14.90;99.90;;;;;;4979080;28;20202;-81
2023/08/29 00:08:32;;;;;;;5.13;3.83;;;14.90;99.90;;;;;;4970461;28;20198;-84
2023/08/29 00:10:58;;;;;;;11.30;4.23;;;14.70;99.90;;;;;;4976892;28;20211;-83
2023/08/29 00:13:27;;;;;;;5.80;3.50;;;14.70;99.90;;;;;;4971857;28;20738;-81
2023/08/29 00:15:53;;;;;;;7.40;3.97;;;14.70;99.90;;;;;;4987016;28;20178;-81
2023/08/29 00:18:21;;;;;;;9.20;3.57;;;14.60;99.90;;;;;;4973546;28;20185;-82
2023/08/29 00:20:51;;;;;;;6.80;3.70;;;14.60;99.90;;;;;;4975029;28;20170;-80
2023/08/29 00:23:17;;;;;;;6.10;3.27;;;14.60;99.90;;;;;;4991370;28;20170;-80
2023/08/29 00:25:42;;;;;;;6.97;3.90;;;14.60;99.90;;;;;;4982691;28;20181;-83
2023/08/29 00:28:08;;;;;;;6.90;3.00;;;14.70;99.90;;;;;;4981846;28;20225;-83
2023/08/29 00:30:38;;;;;;;5.53;3.63;;;14.60;99.90;;;;;;4958057;28;20222;-82
2023/08/29 00:33:05;;;;;;;9.60;3.60;;;14.50;99.90;;;;;;4967346;28;20218;-82
2023/08/29 00:35:31;;;;;;;5.37;3.43;;;14.40;99.90;;;;;;4980065;28;20175;-81
2023/08/29 00:37:58;;;;;;;5.77;3.40;;;14.40;99.90;;;;;;4982696;28;20179;-81
2023/08/29 00:40:30;;;;;;;5.43;3.80;;;14.40;99.90;;;;;;4962867;28;20178;-81
2023/08/29 00:42:58;;;;;;;12.10;3.90;;;14.30;99.90;;;;;;4963245;28;20202;-82
2023/08/29 00:45:24;;;;;;;4.10;3.40;;;14.30;99.90;;;;;;4980195;28;20266;-81
2023/08/29 00:47:50;;;;;;;7.73;3.03;;;14.30;99.90;;;;;;4981617;28;20275;-81
2023/08/29 00:50:15;;;;;;;5.93;3.60;;;14.20;99.90;;;;;;4965160;28;20202;-81
2023/08/29 00:52:41;;;;;;;5.90;3.40;;;14.20;99.90;;;;;;4967421;28;20202;-81
2023/08/29 00:55:08;;;;;;;6.73;3.70;;;14.10;99.90;;;;;;4990975;28;20233;-81
2023/08/29 00:57:34;;;;;;;4.73;3.23;;;14.10;99.90;;;;;;4985487;28;20182;-81
2023/08/29 00:59:59;;;;;;;7.73;3.73;;;14.10;99.90;;;;;;4978103;28;20292;-81
2023/08/29 01:02:25;;;;;;;4.90;3.53;;;14.00;99.90;;;;;;4980137;28;20230;-81
2023/08/29 01:04:50;;;;;;;8.10;3.27;;;13.90;99.90;;;;;;4962001;28;20542;-81
2023/08/29 01:07:16;;;;;;;7.97;3.30;;;13.90;99.90;;;;;;4962219;28;20234;-81
2023/08/29 01:09:42;;;;;;;8.57;3.53;;;14.00;99.90;;;;;;4980360;28;20209;-81
2023/08/29 01:12:16;;;;;;;10.17;3.33;;;14.00;99.90;;;;;;4962077;28;20191;-81
2023/08/29 01:15:10;;;;;;;4.97;3.00;;;14.00;99.90;;;;;;4979537;28;20163;-81
2023/08/29 01:17:40;;;;;;;9.67;3.50;;;14.00;99.90;;;;;;4980337;28;20159;-81
2023/08/29 01:20:08;;;;;;;5.60;3.27;;;13.90;99.90;;;;;;4962402;28;20201;-80
2023/08/29 01:22:57;;;;;;;4.63;3.30;;;13.80;99.90;;;;;;4961883;28;20661;-81
2023/08/29 01:25:34;;;;;;;8.73;3.17;;;13.80;99.90;;;;;;4980566;28;20179;-81
2023/08/29 01:28:01;;;;;;;5.97;3.77;;;13.80;99.90;;;;;;4979257;28;20273;-80
2023/08/29 01:30:28;;;;;;;8.53;3.50;;;13.70;99.90;;;;;;4965205;28;20687;-81
2023/08/29 01:32:54;;;;;;;9.03;4.17;;;13.70;99.90;;;;;;4970747;28;20210;-83
2023/08/29 01:35:22;;;;;;;8.97;3.87;;;13.70;99.90;;;;;;4965832;28;20179;-83
2023/08/29 01:37:47;;;;;;;8.57;3.70;;;13.70;99.90;;;;;;4966748;28;20185;-82
2023/08/29 01:40:13;;;;;;;8.43;3.07;;;13.60;99.90;;;;;;4965662;28;20182;-80
2023/08/29 01:42:39;;;;;;;5.17;3.10;;;13.60;99.90;;;;;;4966625;28;20194;-81
2023/08/29 01:45:08;;;;;;;6.20;3.00;;;13.70;99.90;;;;;;4966784;28;20200;-81
2023/08/29 01:47:33;;;;;;;4.40;2.50;;;13.60;99.90;;;;;;4967830;28;20209;-83
2023/08/29 01:50:03;;;;;;;6.20;3.00;;;13.50;99.90;;;;;;4966253;28;20175;-83
2023/08/29 01:52:30;;;;;;;7.80;3.27;;;13.40;99.90;;;;;;4966043;28;20191;-83
2023/08/29 01:54:56;;;;;;;5.00;3.00;;;13.40;99.90;;;;;;4964501;28;20618;-81
2023/08/29 01:57:23;;;;;;;9.53;2.87;;;13.40;99.90;;;;;;4965134;28;20218;-81
2023/08/29 01:59:50;;;;;;;4.80;3.00;;;13.30;99.90;;;;;;4965312;28;20278;-82
2023/08/29 02:02:17;;;;;;;4.23;2.80;;;13.30;99.90;;;;;;4966033;28;20202;-81
2023/08/29 02:04:43;;;;;;;7.00;3.23;;;13.30;99.90;;;;;;4967012;28;20179;-81
2023/08/29 02:07:08;;;;;;;3.50;3.20;;;13.20;99.90;;;;;;4983689;28;20216;-80
2023/08/29 02:09:34;;;;;;;5.03;3.27;;;13.20;99.90;;;;;;4966497;28;20218;-80
2023/08/29 02:11:59;;;;;;;6.77;3.20;;;13.40;99.90;;;;;;4984934;28;20194;-80
2023/08/29 02:14:25;;;;;;;5.93;3.73;;;13.20;99.90;;;;;;4984982;28;20170;-81
2023/08/29 02:16:50;;;;;;;5.63;3.93;;;13.10;99.90;;;;;;4984291;28;20194;-81
2023/08/29 02:19:16;;;;;;;6.50;4.00;;;13.20;99.90;;;;;;4965493;28;20182;-81
2023/08/29 02:21:45;;;;;;;3.67;3.20;;;13.10;99.90;;;;;;4965673;28;20206;-83
2023/08/29 02:24:10;;;;;;;7.57;3.57;;;13.10;99.90;;;;;;4965684;28;20237;-81
2023/08/29 02:26:36;;;;;;;7.07;4.40;;;13.10;99.90;;;;;;4965919;28;20294;-80
2023/08/29 02:29:01;;;;;;;6.50;3.70;;;13.10;99.90;;;;;;4965706;28;20177;-81
2023/08/29 02:31:27;;;;;;;6.00;4.20;;;13.10;99.90;;;;;;4966486;28;20205;-81
2023/08/29 02:33:53;;;;;;;6.67;4.50;;;13.10;99.90;;;;;;4983069;28;20178;-81
2023/08/29 02:36:19;;;;;;;7.97;4.43;;;13.10;99.90;;;;;;4982857;28;20166;-81
2023/08/29 02:38:44;;;;;;;5.90;4.50;;;13.10;99.90;;;;;;4965236;28;20176;-80
2023/08/29 02:41:11;;;;;;;6.67;4.73;;;13.10;99.90;;;;;;4981816;28;20505;-81
2023/08/29 02:43:37;;;;;;;5.97;4.30;;;13.10;99.90;;;;;;4982684;28;20162;-81
2023/08/29 02:46:03;;;;;;;7.40;4.27;;;13.10;99.90;;;;;;4965190;28;20178;-80
2023/08/29 02:48:29;;;;;;;6.73;4.87;;;13.00;99.90;;;;;;4964947;28;20224;-81
2023/08/29 02:50:54;;;;;;;6.63;4.57;;;13.10;99.90;;;;;;4965458;28;20260;-81
2023/08/29 02:53:21;;;;;;;7.57;4.33;;;13.10;99.90;;;;;;4984102;28;20179;-81
2023/08/29 02:55:49;;;;;;;6.70;4.43;;;13.00;99.90;;;;;;4965875;28;20470;-82
2023/08/29 02:58:15;;;;;;;7.60;4.13;;;13.00;99.90;;;;;;4966617;28;20182;-80
2023/08/29 03:00:41;;;;;;;5.23;3.63;;;13.10;99.90;;;;;;4966343;28;20193;-81
2023/08/29 03:03:06;;;;;;;5.93;4.13;;;13.10;99.90;;;;;;4985242;28;20201;-81
2023/08/29 03:05:32;;;;;;;5.60;3.80;;;13.10;99.90;;;;;;4986123;28;20178;-81
2023/08/29 03:08:04;;;;;;;6.10;4.33;;;13.00;99.90;;;;;;4994163;28;20273;-80
2023/08/29 03:10:31;;;;;;;8.83;4.33;;;13.00;99.90;;;;;;4988470;28;20178;-81
2023/08/29 03:12:56;;;;;;;8.33;4.13;;;13.00;99.90;;;;;;4983959;28;20221;-82
2023/08/29 03:15:22;;;;;;;9.07;5.07;;;13.10;99.90;;;;;;4967353;28;20178;-81
2023/08/29 03:17:48;;;;;;;5.87;5.03;;;13.00;99.90;;;;;;4966836;28;20280;-81
2023/08/29 03:20:15;;;;;;;6.53;4.43;;;13.20;99.90;;;;;;4983792;28;20183;-81
2023/08/29 03:22:40;;;;;;;7.13;4.50;;;13.00;99.90;;;;;;4983601;28;20194;-81
2023/08/29 03:25:06;;;;;;;9.47;5.07;;;13.00;99.90;;;;;;4966826;28;20190;-81
2023/08/29 03:27:32;;;;;;;5.57;4.10;;;13.00;99.90;;;;;;4966883;28;20236;-81
2023/08/29 03:29:58;;;;;;;5.03;3.80;;;12.90;99.90;;;;;;4984592;28;20209;-81
2023/08/29 03:32:23;;;;;;;8.80;3.90;;;13.00;99.90;;;;;;4966805;28;20307;-80
2023/08/29 03:34:53;;;;;;;6.80;4.60;;;12.80;99.90;;;;;;4985108;28;20186;-81
2023/08/29 03:37:19;;;;;;;8.17;4.00;;;13.00;99.90;;;;;;4987796;28;20174;-80
2023/08/29 03:39:44;;;;;;;6.70;4.03;;;13.00;99.90;;;;;;4976004;28;20277;-81
2023/08/29 03:42:10;;;;;;;7.77;4.53;;;13.00;99.90;;;;;;4992075;28;20260;-81
2023/08/29 03:44:35;;;;;;;5.63;4.53;;;13.10;99.90;;;;;;4975411;28;20178;-80
2023/08/29 03:47:01;;;;;;;8.73;4.67;;;13.00;99.90;;;;;;4975435;28;20214;-81
2023/08/29 03:49:26;;;;;;;7.37;5.00;;;12.90;99.90;;;;;;4976115;28;20185;-80
2023/08/29 03:51:52;;;;;;;5.43;4.90;;;13.00;99.90;;;;;;4993467;28;20198;-80
2023/08/29 03:54:17;;;;;;;4.97;4.40;;;13.00;99.90;;;;;;4990900;28;20170;-80
2023/08/29 03:56:43;;;;;;;9.57;5.27;;;13.00;99.90;;;;;;4982226;28;20186;-81
2023/08/29 03:59:09;;;;;;;6.80;4.80;;;12.90;99.90;;;;;;4981996;28;20174;-81
2023/08/29 04:01:35;;;;;;;6.97;5.70;;;13.10;99.90;;;;;;4982272;28;20194;-81
2023/08/29 04:04:02;;;;;;;6.70;4.77;;;12.90;99.90;;;;;;4964157;28;20184;-81
2023/08/29 04:06:28;;;;;;;8.00;4.70;;;12.90;99.90;;;;;;4982594;28;20225;-80
2023/08/29 04:08:54;;;;;;;9.30;4.53;;;13.00;99.90;;;;;;4967172;28;20174;-81
2023/08/29 04:11:20;;;;;;;9.57;4.73;;;12.90;99.90;;;;;;4966070;28;20205;-80
2023/08/29 04:13:45;;;;;;;7.70;4.47;;;12.90;99.90;;;;;;4964503;28;20174;-81
2023/08/29 04:16:11;;;;;;;10.80;4.30;;;12.80;99.90;;;;;;4963651;28;20286;-81
2023/08/29 04:18:36;;;;;;;10.50;4.03;;;12.80;99.90;;;;;;4963767;28;20268;-80
2023/08/29 04:21:02;;;;;;;7.07;4.00;;;12.80;99.90;;;;;;4979082;28;20194;-80
2023/08/29 04:23:28;;;;;;;8.30;3.83;;;12.80;99.90;;;;;;4953949;28;20189;-82
2023/08/29 04:26:01;;;;;;;5.60;3.73;;;12.80;99.90;;;;;;4951954;28;20177;-83
2023/08/29 04:28:27;;;;;;;8.17;3.40;;;12.80;99.90;;;;;;4950968;28;20267;-81
2023/08/29 04:30:54;;;;;;;5.50;3.90;;;12.80;99.90;;;;;;4954631;28;20174;-81
2023/08/29 04:33:19;;;;;;;6.80;4.63;;;12.90;99.90;;;;;;4962786;28;20189;-81
2023/08/29 04:35:48;;;;;;;7.87;4.10;;;12.90;99.90;;;;;;4963331;28;20179;-79
2023/08/29 04:38:13;;;;;;;4.70;4.17;;;12.90;99.90;;;;;;4982260;28;20175;-78
2023/08/29 04:40:39;;;;;;;6.80;4.60;;;12.90;99.90;;;;;;4963898;28;20174;-80
2023/08/29 04:43:04;;;;;;;7.87;4.20;;;12.80;99.90;;;;;;4964559;28;20360;-79
2023/08/29 04:45:30;;;;;;;11.60;4.80;;;12.90;99.90;;;;;;4982141;28;20185;-79
2023/08/29 04:47:57;;;;;;;6.20;4.70;;;12.90;99.90;;;;;;4963507;28;20198;-79
2023/08/29 04:50:25;;;;;;;5.53;4.50;;;12.90;99.90;;;;;;4982304;28;20190;-79
2023/08/29 04:52:53;;;;;;;5.37;4.30;;;12.80;99.90;;;;;;4981682;28;20182;-79
2023/08/29 04:55:19;;;;;;;7.07;4.10;;;12.80;99.90;;;;;;4982122;28;20243;-79
2023/08/29 04:57:51;;;;;;;9.73;4.50;;;12.90;99.90;;;;;;4980429;28;20178;-80
2023/08/29 05:00:35;;;;;;;8.87;4.50;;;12.90;99.90;;;;;;4981348;28;20166;-80
2023/08/29 05:03:14;;;;;;;6.83;4.20;;;12.90;99.90;;;;;;4964028;28;20218;-81
2023/08/29 05:05:45;;;;;;;5.07;4.40;;;12.90;99.90;;;;;;4984441;28;20623;-81
2023/08/29 05:08:11;;;;;;;5.20;4.53;;;12.20;99.90;;;;;;4985019;28;20277;-80
2023/08/29 05:10:36;;;;;;;8.80;4.73;;;13.00;99.90;;;;;;4986397;28;20174;-80
2023/08/29 05:13:03;;;;;;;6.07;4.10;;;13.20;99.90;;;;;;4987547;28;20197;-81
2023/08/29 05:15:35;;;;;;;4.90;3.80;;;12.90;99.90;;;;;;4987609;28;20170;-81
2023/08/29 05:18:01;;;;;;;4.40;3.63;;;13.70;99.90;;;;;;4972587;28;20174;-81
2023/08/29 05:20:26;;;;;;;4.37;3.97;;;13.60;99.90;;;;;;4994080;28;20229;-80
2023/08/29 05:22:52;;;;;;;8.10;4.57;;;12.90;99.90;;;;;;4972956;28;20278;-80
2023/08/29 05:25:23;;;;;;;9.57;4.40;;;12.90;99.90;;;;;;4984752;28;20170;-81
2023/08/29 05:28:10;;;;;;;7.33;4.70;;;12.90;99.90;;;;;;4967445;28;20229;-81
2023/08/29 05:30:45;;;;;;;6.93;5.13;;;13.10;99.90;;;;;;4984522;28;20168;-81
2023/08/29 05:33:12;;;;;;;9.60;5.63;;;13.60;99.90;;;;;;4984550;28;20232;-81
2023/08/29 05:35:40;;;;;;;6.67;5.77;;;13.00;99.90;;;;;;4984559;28;20694;-81
2023/08/29 05:38:09;;;;;;;8.33;5.23;;;13.00;99.90;;;;;;4983949;28;20182;-80
2023/08/29 05:40:40;;;;;;;11.57;5.93;;;13.00;99.90;;;;;;4966196;28;20182;-81
2023/08/29 05:43:09;;;;;;;6.90;5.63;;;13.10;99.90;;;;;;4984151;28;20202;-81
2023/08/29 05:45:34;;;;;;;7.20;5.20;;;12.90;99.90;;;;;;4967640;28;20527;-81
2023/08/29 05:48:05;;;;;;;8.73;4.73;;;13.10;99.90;;;;;;4984089;28;20253;-81
2023/08/29 05:50:55;;;;;;;5.50;4.00;;;13.10;99.90;;;;;;4965428;28;20182;-81
2023/08/29 05:53:28;;;;;;;7.50;4.30;;;13.20;99.90;;;;;;4983454;28;20214;-81
2023/08/29 05:56:00;;;;;;;8.37;4.20;;;13.10;99.90;;;;;;4967293;28;20215;-81
2023/08/29 05:58:31;;;;;;;5.17;4.03;;;13.20;99.90;;;;;;4983259;28;20174;-81
2023/08/29 06:01:06;;;;;;;9.87;3.83;;;13.30;99.90;;;;;;4968042;28;20210;-81
2023/08/29 06:03:43;;;;;;;10.37;4.37;;;13.30;99.90;;;;;;4968154;28;20313;-81
2023/08/29 06:06:11;;;;;;;6.13;3.97;;;13.80;99.90;;;;;;4967321;28;20188;-81
2023/08/29 06:08:42;;;;;;;8.30;4.43;;;13.40;99.90;;;;;;4967007;28;20206;-81
2023/08/29 06:11:09;;;;;;;12.27;5.03;;;13.50;99.90;;;;;;4965294;28;20545;-82
2023/08/29 06:13:34;;;;;;;6.27;4.30;;;13.60;99.90;;;;;;4965304;28;20206;-81
2023/08/29 06:16:00;;;;;;;4.83;3.50;;;13.60;99.90;;;;;;4983642;28;20178;-81
2023/08/29 06:18:29;;;;;;;3.97;3.33;;;13.70;99.90;;;;;;4984056;28;20653;-81
2023/08/29 06:20:57;;;;;;;6.10;3.37;;;13.70;99.90;;;;;;4983299;28;20591;-81
2023/08/29 06:23:23;;;;;;;9.30;3.40;;;14.00;99.90;;;;;;4963065;28;20187;-82
2023/08/29 06:28:47;;;;;;;13.83;3.50;;;13.80;99.90;;;;;;4929884;28;20244;-81
2023/08/29 06:31:30;;;;;;;8.37;3.80;;;13.90;99.90;;;;;;4962409;28;20212;-82
2023/08/29 06:34:07;;;;;;;7.27;3.30;;;13.90;99.90;;;;;;4963476;28;20190;-81
2023/08/29 06:36:55;;;;;;;7.43;3.23;;;14.00;99.90;;;;;;4979486;28;20192;-80
2023/08/29 06:39:20;;;;;;;9.33;4.20;;;14.60;99.90;;;;;;4979715;28;20182;-81
2023/08/29 06:44:40;;;;;;;8.60;3.70;;;14.20;99.90;;;;;;4982408;28;20186;-81
2023/08/29 06:47:15;;;;;;;5.97;3.93;;;14.60;99.90;;;;;;4962711;28;20206;-82
2023/08/29 06:49:46;;;;;;;6.10;5.00;;;14.10;99.90;;;;;;4963364;28;20261;-82
2023/08/29 06:52:41;;;;;;;7.27;5.10;;;14.20;99.90;;;;;;4985195;23;20219;-81
2023/08/29 06:55:31;;;;;;;8.03;5.13;;;14.50;99.90;;;;;;4923223;29;20614;-81
2023/08/29 06:58:09;;;;;;;8.90;5.50;;;14.30;99.90;;;;;;4954226;29;20198;-82
2023/08/29 07:01:15;;;;;;;8.90;6.70;;;14.90;99.90;;;;;;4963560;29;20183;-82
2023/08/29 07:03:59;;;;;;;11.27;7.67;;;14.50;99.90;;;;;;4920565;29;20192;-82
2023/08/29 07:06:51;;;;;;;10.40;8.83;;;14.60;99.90;;;;;;4923041;29;20180;-82
2023/08/29 07:09:31;;;;;;;13.57;7.60;;;14.70;99.90;;;;;;4926801;29;20180;-82
2023/08/29 07:12:20;;;;;;;;;;;;;;;;;;;;;
2023/08/29 07:14:52;;;;;;;13.83;7.27;;;14.60;99.90;;;;;;4944587;29;20239;-82
2023/08/29 07:17:50;;;;;;;14.63;8.13;;;14.60;99.90;;;;;;4927142;29;20175;-82
2023/08/29 07:20:25;;;;;;;11.60;9.20;;;14.90;99.90;;;;;;4945161;29;20184;-82
2023/08/29 07:22:56;;;;;;;12.23;8.97;;;14.90;99.90;;;;;;4932002;29;20243;-81
2023/08/29 07:25:50;;;;;;;13.17;9.90;;;15.00;99.90;;;;;;4929451;29;20183;-82
2023/08/29 07:28:24;;;;;;;14.13;9.47;;;15.30;99.90;;;;;;4929856;29;20210;-82
2023/08/29 07:30:53;;;;;;;11.00;9.47;;;15.30;99.90;;;;;;4954463;29;20166;-82
2023/08/29 07:33:21;;;;;;;12.03;9.60;;;15.10;99.90;;;;;;4955143;29;20195;-81
2023/08/29 07:35:51;;;;;;;11.57;8.90;;;15.30;99.90;;;;;;4926439;29;20207;-82
2023/08/29 07:38:20;;;;;;;15.43;10.37;;;15.50;99.90;;;;;;4924120;29;20183;-82
2023/08/29 07:40:47;;;;;;;15.50;10.50;;;15.70;99.90;;;;;;4924385;29;20180;-81
2023/08/29 07:43:17;;;;;;;12.17;8.30;;;15.40;99.90;;;;;;4923696;29;20199;-82
2023/08/29 07:45:53;;;;;;;15.63;12.83;;;15.50;99.90;;;;;;4923893;29;20184;-82
2023/08/29 07:48:19;;;;;;;21.63;13.80;;;15.80;99.90;;;;;;4924164;29;20311;-82
2023/08/29 07:50:45;;;;;;;18.50;13.83;;;15.60;99.90;;;;;;4923394;29;20182;-81
2023/08/29 07:53:17;;;;;;;19.13;12.83;;;15.60;99.90;;;;;;4930594;29;20215;-84
2023/08/29 07:55:46;;;;;;;19.40;12.17;;;15.70;99.90;;;;;;4922900;29;20187;-82
2023/08/29 07:58:23;;;;;;;21.77;13.13;;;16.30;99.90;;;;;;4943556;29;20522;-82
2023/08/29 08:00:49;;;;;;;19.47;13.33;;;15.90;99.90;;;;;;4947039;29;20171;-82
2023/08/29 08:03:15;;;;;;;20.27;12.03;;;15.90;99.90;;;;;;4925254;29;20199;-81
2023/08/29 08:05:49;;;;;;;15.93;11.77;;;16.10;99.90;;;;;;4924380;29;20262;-81
2023/08/29 08:08:21;;;;;;;19.70;11.77;;;15.90;99.90;;;;;;4923839;29;20195;-81
2023/08/29 08:10:54;;;;;;;20.73;13.63;;;16.10;99.90;;;;;;4924303;29;20281;-82
2023/08/29 08:13:22;;;;;;;23.13;12.93;;;16.00;99.90;;;;;;4941155;29;20239;-80
2023/08/29 08:16:00;;;;;;;22.27;13.40;;;16.80;99.90;;;;;;4924941;29;20233;-81
2023/08/29 08:18:37;;;;;;;24.67;14.03;;;16.10;99.90;;;;;;4923354;29;20198;-81
2023/08/29 08:21:22;;;;;;;25.47;13.50;;;16.80;99.90;;;;;;4925309;29;20183;-82
2023/08/29 08:23:52;;;;;;;23.50;12.20;;;16.70;99.90;;;;;;4925149;29;20191;-81
2023/08/29 08:26:18;;;;;;;21.47;13.10;;;16.20;99.90;;;;;;4941988;29;20195;-81
2023/08/29 08:28:59;;;;;;;22.40;11.53;;;16.30;99.90;;;;;;4924661;29;20204;-81
2023/08/29 08:31:25;;;;;;;23.10;13.13;;;16.40;99.90;;;;;;4941584;29;20266;-82
2023/08/29 08:33:51;;;;;;;33.30;15.37;;;16.40;99.90;;;;;;4923918;29;20234;-81
2023/08/29 08:36:17;;;;;;;25.87;13.07;;;16.40;99.90;;;;;;4923336;29;20183;-81
2023/08/29 08:38:43;;;;;;;26.40;17.83;;;17.00;99.90;;;;;;4939710;29;20211;-81
2023/08/29 08:41:11;;;;;;;27.33;17.30;;;16.80;99.90;;;;;;4954832;23;20187;-80
2023/08/29 08:43:53;;;;;;;35.73;17.83;;;16.50;99.90;;;;;;5003384;28;20185;-81
2023/08/29 08:46:29;;;;;;;26.57;16.10;;;17.10;99.90;;;;;;5002321;28;20194;-81
2023/08/29 08:48:58;;;;;;;29.80;15.23;;;16.70;99.90;;;;;;5002344;28;20178;-82
2023/08/29 08:51:26;;;;;;;27.07;14.20;;;17.00;99.90;;;;;;5000797;28;20511;-81
2023/08/29 08:53:53;;;;;;;23.80;13.43;;;16.80;99.90;;;;;;5000944;28;20528;-81
2023/08/29 08:56:22;;;;;;;24.00;12.47;;;17.10;99.90;;;;;;5001437;28;20189;-81
2023/08/29 08:58:54;;;;;;;22.20;11.87;;;16.90;99.90;;;;;;5002385;28;20268;-81
2023/08/29 09:01:23;;;;;;;18.70;9.17;;;17.00;99.90;;;;;;5003599;28;20286;-81
2023/08/29 09:03:50;;;;;;;18.03;9.37;;;17.00;99.90;;;;;;5002536;28;20700;-81
2023/08/29 09:06:19;;;;;;;16.10;8.10;;;16.90;99.90;;;;;;5000349;28;20181;-82
2023/08/29 09:08:56;;;;;;;14.00;8.17;;;17.50;99.90;;;;;;5000742;28;20658;-81
2023/08/29 09:11:27;;;;;;;13.53;6.83;;;17.00;99.90;;;;;;5000986;28;20221;-81
2023/08/29 09:13:52;;;;;;;12.03;6.43;;;17.20;99.90;;;;;;5001129;28;20184;-81
2023/08/29 09:16:21;;;;;;;13.97;6.33;;;17.30;99.90;;;;;;5001926;28;20233;-82
2023/08/29 09:18:50;;;;;;;14.13;6.37;;;17.40;99.90;;;;;;5000133;28;20174;-81
2023/08/29 09:21:18;;;;;;;12.27;6.00;;;17.60;99.90;;;;;;4999735;28;20209;-82
2023/08/29 09:23:54;;;;;;;12.77;6.10;;;18.00;99.90;;;;;;4998845;28;20228;-81
2023/08/29 09:26:32;;;;;;;11.40;4.63;;;17.50;99.90;;;;;;5001503;28;20176;-81
2023/08/29 09:28:58;;;;;;;14.57;5.10;;;17.50;99.90;;;;;;5000896;28;20232;-81
2023/08/29 09:31:30;;;;;;;9.30;4.60;;;17.70;99.90;;;;;;5002933;28;20277;-82
2023/08/29 09:33:58;;;;;;;10.07;4.40;;;17.60;99.90;;;;;;5002249;28;20228;-81
2023/08/29 09:36:27;;;;;;;6.83;3.60;;;17.70;99.90;;;;;;5003523;28;20181;-81
2023/08/29 09:38:57;;;;;;;5.40;2.80;;;17.90;99.90;;;;;;5001955;28;20177;-81
2023/08/29 09:41:28;;;;;;;4.00;2.53;;;17.90;99.90;;;;;;5000649;28;20236;-81
2023/08/29 09:43:54;;;;;;;5.37;2.07;;;17.80;99.90;;;;;;4999139;28;20177;-81
2023/08/29 09:46:26;;;;;;;5.03;1.80;;;17.80;99.90;;;;;;5001932;28;20180;-81
2023/08/29 09:48:57;;;;;;;6.00;2.50;;;17.30;1.00;;;;;;5001044;28;20276;-81
2023/08/29 09:51:25;;;;;;;4.10;2.13;;;17.90;1.00;;;;;;4998533;28;20653;-81
2023/08/29 09:53:52;;;;;;;5.97;2.10;;;17.90;1.00;;;;;;5000938;28;20174;-81
2023/08/29 09:56:23;;;;;;;6.30;2.53;;;17.90;1.00;;;;;;5002050;28;20177;-81
2023/08/29 09:58:50;;;;;;;4.40;2.30;;;18.60;99.90;;;;;;5000610;28;20599;-81
2023/08/29 10:01:18;;;;;;;6.57;2.80;;;18.10;99.90;;;;;;5001207;28;20198;-81
2023/08/29 10:03:48;;;;;;;3.77;2.37;;;18.20;99.90;;;;;;4999305;28;20257;-80
2023/08/29 10:06:16;;;;;;;5.00;1.80;;;18.10;1.00;;;;;;5000885;28;20188;-80
2023/08/29 10:08:46;;;;;;;4.77;1.77;;;18.10;99.90;;;;;;5000077;28;20190;-81
2023/08/29 10:11:14;;;;;;;4.73;2.00;;;18.10;99.90;;;;;;4997425;28;20550;-81
2023/08/29 10:13:45;;;;;;;6.50;1.90;;;18.20;99.90;;;;;;4998303;28;20196;-80
2023/08/29 10:16:13;;;;;;;3.73;1.80;;;18.30;1.00;;;;;;4997859;28;20226;-81
2023/08/29 10:18:39;;;;;;;4.47;2.03;;;18.40;1.00;;;;;;4997337;28;20192;-80
2023/08/29 10:21:05;;;;;;;3.27;1.80;;;18.40;1.00;;;;;;4998399;28;20209;-81
2023/08/29 10:23:31;;;;;;;4.57;1.83;;;19.10;1.00;;;;;;4999429;28;20180;-81
2023/08/29 10:25:58;;;;;;;4.07;2.00;;;18.40;1.00;;;;;;4997350;28;20244;-81
2023/08/29 10:28:24;;;;;;;4.73;1.80;;;18.50;99.90;;;;;;4997277;28;20197;-80
2023/08/29 10:30:52;;;;;;;2.43;1.73;;;18.40;99.90;;;;;;4999313;28;20200;-81
2023/08/29 10:33:20;;;;;;;4.07;1.93;;;18.50;99.90;;;;;;4999761;28;20232;-83
2023/08/29 10:35:52;;;;;;;3.93;1.70;;;18.50;99.90;;;;;;4997979;28;20505;-83
2023/08/29 10:38:24;;;;;;;5.70;1.90;;;18.40;99.90;;;;;;4997047;28;20264;-84
2023/08/29 10:43:34;;;;;;;4.33;1.57;;;18.50;99.90;;;;;;5000717;23;20237;-83
2023/08/29 10:46:13;;;;;;;1.73;1.43;;;18.50;99.90;;;;;;4979381;28;20185;-84
2023/08/29 10:48:51;;;;;;;3.73;1.60;;;18.40;99.90;;;;;;4993892;28;20205;-83
2023/08/29 10:51:22;;;;;;;4.10;1.80;;;18.70;99.90;;;;;;4978629;28;20214;-83
2023/08/29 10:54:05;;;;;;;2.73;1.60;;;18.60;99.90;;;;;;4980006;28;20151;-83
2023/08/29 10:56:42;;;;;;;2.43;1.83;;;18.70;99.90;;;;;;4977832;28;20186;-83
2023/08/29 10:59:33;;;;;;;5.13;1.50;;;18.70;99.90;;;;;;4977813;28;20176;-84
2023/08/29 11:02:27;;;;;;;4.07;1.80;;;18.80;99.90;;;;;;4976633;28;20722;-83
2023/08/29 11:05:15;;;;;;;2.10;1.30;;;18.70;99.90;;;;;;4978381;28;20286;-83
2023/08/29 11:07:41;;;;;;;4.93;1.77;;;18.60;99.90;;;;;;4977729;28;20252;-83
2023/08/29 11:10:23;;;;;;;3.30;1.20;;;19.00;1.00;;;;;;4977476;28;20182;-83
2023/08/29 11:13:18;;;;;;;1.80;1.20;;;19.00;1.00;;;;;;4978121;28;20199;-83
2023/08/29 11:15:47;;;;;;;3.13;1.17;;;19.00;99.90;;;;;;4978254;28;20504;-83
2023/08/29 11:18:29;;;;;;;1.37;1.23;;;19.00;99.90;;;;;;4979731;28;20198;-83
2023/08/29 11:21:09;;;;;;;2.73;1.20;;;18.70;99.90;;;;;;4977669;28;20198;-84
2023/08/29 11:23:45;;;;;;;5.67;1.10;;;18.80;99.90;;;;;;4978776;28;20544;-83
2023/08/29 11:26:16;;;;;;;1.73;1.20;;;19.00;99.90;;;;;;4979789;28;20174;-83
2023/08/29 11:29:08;;;;;;;2.10;1.23;;;19.10;99.90;;;;;;4979043;28;20214;-83
2023/08/29 11:31:51;;;;;;;1.70;1.13;;;19.00;99.90;;;;;;4975780;28;20218;-83
2023/08/29 11:34:40;;;;;;;2.93;1.10;;;19.10;99.90;;;;;;4979769;28;20190;-82
2023/08/29 11:37:41;;;;;;;4.37;1.30;;;19.20;99.90;;;;;;4979014;28;20174;-83
2023/08/29 11:40:13;;;;;;;3.13;1.20;;;18.90;99.90;;;;;;4973471;28;20209;-84
2023/08/29 11:42:39;;;;;;;3.80;1.07;;;19.20;99.90;;;;;;4979425;28;20229;-83
2023/08/29 11:45:08;;;;;;;1.77;0.97;;;19.30;99.90;;;;;;4979073;28;20537;-83
2023/08/29 11:47:44;;;;;;;;;;;;;;;;;;;;;
2023/08/29 11:50:16;;;;;;;2.83;1.13;;;19.20;99.90;;;;;;4978213;28;20257;-83
2023/08/29 11:52:44;;;;;;;3.33;1.27;;;19.20;99.90;;;;;;4977906;28;20301;-84
2023/08/29 11:55:31;;;;;;;2.67;1.40;;;19.30;99.90;;;;;;4977090;28;20178;-82
2023/08/29 11:58:06;;;;;;;3.10;1.40;;;19.30;99.90;;;;;;4978156;28;20674;-83
2023/08/29 12:00:38;;;;;;;2.03;1.20;;;19.20;99.90;;;;;;4985476;28;20201;-83
2023/08/29 12:03:07;;;;;;;2.40;1.10;;;19.40;99.90;;;;;;4983015;28;20210;-84
2023/08/29 12:06:04;;;;;;;;;;;;;;;;;;;;;
2023/08/29 12:08:40;;;;;;;2.67;1.30;;;19.50;99.90;;;;;;4978960;28;20273;-87
2023/08/29 12:11:07;;;;;;;2.27;1.20;;;19.50;99.90;;;;;;4977650;28;20504;-83
2023/08/29 12:13:37;;;;;;;2.93;1.40;;;19.60;35.10;;;;;;4980946;28;20166;-82
2023/08/29 12:16:03;;;;;;;3.00;1.07;;;19.40;5.10;;;;;;4978588;28;20185;-82
2023/08/29 12:18:32;;;;;;;2.50;1.03;;;19.40;99.90;;;;;;4980113;28;20182;-82
2023/08/29 12:21:16;;;;;;;2.40;1.23;;;20.00;99.90;;;;;;4981966;28;20198;-82
2023/08/29 12:23:45;;;;;;;5.83;1.10;;;19.20;99.90;;;;;;4979306;28;20162;-82
2023/08/29 12:26:12;;;;;;;2.57;1.20;;;19.10;99.90;;;;;;4981496;28;20178;-82
2023/08/29 12:28:38;;;;;;;4.33;1.23;;;19.10;99.90;;;;;;4979570;28;20292;-82
2023/08/29 12:31:06;;;;;;;5.80;1.60;;;18.90;99.90;;;;;;4980038;28;20178;-82
2023/08/29 12:33:31;;;;;;;4.60;1.87;;;18.90;99.90;;;;;;4978978;28;20726;-83
2023/08/29 12:35:58;;;;;;;3.67;1.17;;;18.90;99.90;;;;;;4979558;28;20209;-82
2023/08/29 12:38:24;;;;;;;3.93;1.33;;;18.80;99.90;;;;;;4979101;28;20194;-82
2023/08/29 12:40:49;;;;;;;3.80;1.13;;;18.80;99.90;;;;;;4979608;28;20174;-82
2023/08/29 12:43:17;;;;;;;2.03;0.90;;;18.70;99.90;;;;;;4980133;28;20316;-82
2023/08/29 12:45:43;;;;;;;3.57;1.00;;;18.70;99.90;;;;;;4978580;28;20665;-82
2023/08/29 12:48:08;;;;;;;2.83;1.03;;;18.70;99.90;;;;;;4978553;28;20222;-82
2023/08/29 12:50:34;;;;;;;1.93;0.80;;;18.80;1.00;;;;;;4980642;28;20246;-82
2023/08/29 12:53:00;;;;;;;1.97;1.37;;;18.80;1.00;;;;;;4978230;28;20218;-82
2023/08/29 12:55:25;;;;;;;2.03;0.97;;;19.00;1.00;;;;;;4978456;28;20182;-82
2023/08/29 12:57:52;;;;;;;6.90;1.00;;;18.80;99.90;;;;;;4979125;28;20214;-82
2023/08/29 13:00:18;;;;;;;3.33;0.73;;;18.90;99.90;;;;;;4978528;28;20261;-82
2023/08/29 13:02:44;;;;;;;1.77;0.80;;;18.90;99.90;;;;;;4979096;28;20205;-82
2023/08/29 13:05:10;;;;;;;2.80;0.90;;;18.90;99.90;;;;;;4981714;28;20194;-81
2023/08/29 13:07:35;;;;;;;4.17;2.17;;;19.00;99.90;;;;;;4977919;28;20206;-82
2023/08/29 13:10:05;;;;;;;3.53;2.00;;;19.00;1.00;;;;;;4975363;28;20254;-83
2023/08/29 13:12:31;;;;;;;5.73;1.57;;;19.00;1.00;;;;;;4979079;28;20222;-82